Lebec, California
Current Conditions -  °F | °C
As of 4:48 AM on Friday 24 Oct 2014 (Local Time) from KSDB Reporting Station
Clear Clear  
Wind Chill: 65°   Ceiling: Unl
Heat Index: 65°   Visibility: 10mi
Dew Point: 23°   Wind: 14mph
Humidity: 20%   Direction: 180°S
Pressure: 30.13"   Gusts: NA
Location:  34.84°N, 118.87°W
Report Text: KSDB 241148Z AUTO 18012KT 10SM CLR 18/M05 A3013 RMK AO2 SLP149 T01831050 10194 20183 55004
Loading
Personal Weather Stations






























Interactive Weather Map
Tropical Storm Tracking
New forecast layout! Learn more

10-Day Weather Forecast

Advertisements
Track Severe Weather on mobile